createdAt,value
2023-02-18T00:01:46.292Z,100.00
2023-02-18T00:04:49.103Z,100.00
2023-02-18T00:07:51.708Z,100.00
2023-02-18T00:10:54.418Z,100.00
2023-02-18T00:13:59.550Z,100.00
2023-02-18T00:17:02.109Z,100.00
2023-02-18T00:20:07.125Z,100.00
2023-02-18T00:23:09.707Z,100.00
2023-02-18T00:26:14.356Z,100.00
2023-02-18T00:29:16.933Z,100.00
2023-02-18T00:32:19.587Z,100.00
2023-02-18T00:35:22.311Z,100.00
2023-02-18T00:38:25.064Z,100.00
2023-02-18T00:41:29.145Z,100.00
2023-02-18T00:44:31.808Z,100.00
2023-02-18T00:47:34.597Z,100.00
2023-02-18T00:50:37.359Z,100.00
2023-02-18T00:53:40.389Z,100.00
2023-02-18T00:56:43.275Z,100.00
2023-02-18T00:59:46.243Z,100.00
2023-02-18T01:02:49.007Z,100.00
2023-02-18T01:05:52.232Z,98.69
2023-02-18T01:08:55.201Z,98.42
2023-02-18T01:11:57.915Z,98.10
2023-02-18T01:15:00.805Z,97.07
2023-02-18T01:18:03.764Z,95.90
2023-02-18T01:21:10.240Z,96.34
2023-02-18T01:24:12.748Z,95.47
2023-02-18T01:27:15.874Z,94.55
2023-02-18T01:30:18.853Z,93.94
2023-02-18T01:33:22.104Z,93.91
2023-02-18T01:36:24.684Z,93.41
2023-02-18T01:39:32.342Z,92.89
2023-02-18T01:42:35.003Z,92.41
2023-02-18T01:45:47.277Z,94.49
2023-02-18T01:48:59.111Z,96.46
2023-02-18T01:52:23.907Z,96.42
2023-02-18T01:55:27.255Z,96.41
2023-02-18T01:58:30.208Z,97.01
2023-02-18T02:01:32.941Z,96.70
2023-02-18T02:04:37.303Z,98.40
2023-02-18T02:07:42.116Z,100.00
2023-02-18T02:10:53.681Z,100.00
2023-02-18T02:14:15.148Z,100.00
2023-02-18T02:17:50.012Z,100.00
2023-02-18T02:21:02.080Z,100.00
2023-02-18T02:24:29.673Z,100.00
2023-02-18T02:27:58.457Z,100.00
2023-02-18T02:31:13.278Z,100.00
2023-02-18T02:34:24.934Z,100.00
2023-02-18T02:37:34.551Z,100.00
2023-02-18T02:41:13.833Z,100.00
2023-02-18T02:44:35.816Z,100.00
2023-02-18T02:48:02.309Z,100.00
2023-02-18T02:51:18.807Z,98.42
2023-02-18T02:54:27.096Z,99.52
2023-02-18T02:57:31.370Z,97.86
2023-02-18T03:01:01.916Z,97.95
2023-02-18T03:04:34.843Z,96.12
2023-02-18T03:07:52.445Z,93.80
2023-02-18T03:11:09.840Z,95.54
2023-02-18T03:14:48.985Z,95.42
2023-02-18T03:17:58.123Z,95.78
2023-02-18T03:21:07.587Z,96.80
2023-02-18T03:24:42.680Z,96.79
2023-02-18T03:27:55.477Z,96.02
2023-02-18T03:31:03.758Z,94.25
2023-02-18T03:34:14.722Z,92.67
2023-02-18T03:37:18.878Z,91.27
2023-02-18T03:40:25.278Z,90.96
2023-02-18T03:43:29.738Z,89.52
2023-02-18T03:46:33.043Z,90.44
2023-02-18T03:49:35.617Z,88.02
2023-02-18T03:52:38.456Z,89.32
2023-02-18T03:55:41.384Z,86.99
2023-02-18T03:58:44.289Z,87.52
2023-02-18T04:01:46.906Z,86.96
2023-02-18T04:04:49.774Z,87.53
2023-02-18T04:07:52.656Z,87.48
2023-02-18T04:10:55.240Z,87.20
2023-02-18T04:13:58.596Z,86.22
2023-02-18T04:17:01.615Z,85.61
2023-02-18T04:20:05.298Z,84.32
2023-02-18T04:23:08.046Z,85.43
2023-02-18T04:26:11.521Z,84.88
2023-02-18T04:29:14.260Z,85.14
2023-02-18T04:32:17.153Z,84.89
2023-02-18T04:35:19.828Z,85.14
2023-02-18T04:38:23.307Z,84.82
2023-02-18T04:41:26.046Z,84.72
2023-02-18T04:44:28.608Z,85.34
2023-02-18T04:47:31.671Z,86.06
2023-02-18T04:50:34.881Z,84.62
2023-02-18T04:53:37.565Z,86.03
2023-02-18T04:56:40.250Z,85.94
2023-02-18T04:59:42.893Z,86.27
2023-02-18T05:02:46.636Z,86.47
2023-02-18T05:05:49.714Z,87.10
2023-02-18T05:08:52.689Z,88.42
2023-02-18T05:11:55.589Z,89.50
2023-02-18T05:14:58.730Z,89.59
2023-02-18T05:18:01.461Z,89.31
2023-02-18T05:21:04.238Z,90.33
2023-02-18T05:24:07.354Z,91.06
2023-02-18T05:27:10.003Z,90.79
2023-02-18T05:30:13.402Z,89.81
2023-02-18T05:33:15.989Z,90.18
2023-02-18T05:36:19.601Z,91.01
2023-02-18T05:39:22.180Z,91.44
2023-02-18T05:42:24.934Z,92.33
2023-02-18T05:45:27.585Z,93.36
2023-02-18T05:48:30.356Z,93.69
2023-02-18T05:51:33.805Z,93.57
2023-02-18T05:54:37.579Z,94.73
2023-02-18T05:57:40.919Z,94.89
2023-02-18T06:00:46.892Z,96.29
2023-02-18T06:03:50.023Z,95.83
2023-02-18T06:06:52.897Z,96.65
2023-02-18T06:09:56.070Z,96.93
2023-02-18T06:12:58.754Z,97.37
2023-02-18T06:16:01.798Z,98.24
2023-02-18T06:19:04.714Z,97.70
2023-02-18T06:22:08.909Z,97.99
2023-02-18T06:25:12.114Z,98.99
2023-02-18T06:28:14.800Z,98.13
2023-02-18T06:31:19.855Z,97.17
2023-02-18T06:34:22.992Z,97.77
2023-02-18T06:37:26.496Z,98.82
2023-02-18T06:40:29.379Z,99.14
2023-02-18T06:43:32.935Z,99.34
2023-02-18T06:46:35.944Z,98.28
2023-02-18T06:49:39.428Z,97.61
2023-02-18T06:52:42.303Z,96.47
2023-02-18T06:55:45.700Z,95.78
2023-02-18T06:58:48.471Z,94.72
2023-02-18T07:01:51.284Z,93.88
2023-02-18T07:04:54.715Z,92.97
2023-02-18T07:07:57.752Z,89.95
2023-02-18T07:11:01.145Z,87.65
2023-02-18T07:14:03.846Z,87.74
2023-02-18T07:17:07.670Z,86.39
2023-02-18T07:20:11.303Z,85.38
2023-02-18T07:23:14.653Z,85.59
2023-02-18T07:26:17.632Z,85.52
2023-02-18T07:29:20.892Z,85.29
2023-02-18T07:32:24.025Z,85.93
2023-02-18T07:35:27.235Z,85.29
2023-02-18T07:38:31.568Z,85.41
2023-02-18T07:41:34.657Z,85.49
2023-02-18T07:44:38.344Z,86.35
2023-02-18T07:47:42.628Z,85.59
2023-02-18T07:50:46.473Z,85.54
2023-02-18T07:53:49.365Z,86.18
2023-02-18T07:56:53.618Z,86.25
2023-02-18T07:59:56.786Z,86.02
2023-02-18T08:03:00.196Z,86.96
2023-02-18T08:06:05.226Z,87.26
2023-02-18T08:09:08.709Z,88.31
2023-02-18T08:12:12.021Z,88.31
2023-02-18T08:15:15.594Z,87.93
2023-02-18T08:18:21.464Z,88.67
2023-02-18T08:21:26.624Z,88.59
2023-02-18T08:24:29.577Z,88.88
2023-02-18T08:27:33.128Z,89.83
2023-02-18T08:30:36.166Z,90.06
2023-02-18T08:33:40.094Z,90.80
2023-02-18T08:36:42.970Z,90.72
2023-02-18T08:39:46.012Z,90.94
2023-02-18T08:42:48.952Z,91.24
2023-02-18T08:45:51.683Z,91.25
2023-02-18T08:48:57.280Z,91.29
2023-02-18T08:52:00.244Z,92.37
2023-02-18T08:55:05.443Z,91.96
2023-02-18T08:58:08.954Z,91.60
2023-02-18T09:01:13.277Z,89.67
2023-02-18T09:04:17.394Z,91.04
2023-02-18T09:07:20.858Z,90.24
2023-02-18T09:10:23.983Z,90.71
2023-02-18T09:13:27.443Z,90.18
2023-02-18T09:16:30.507Z,90.00
2023-02-18T09:19:33.742Z,90.56
2023-02-18T09:22:36.621Z,89.94
2023-02-18T09:25:41.104Z,89.33
2023-02-18T09:28:44.270Z,90.16
2023-02-18T09:31:47.559Z,91.09
2023-02-18T09:34:50.440Z,90.95
2023-02-18T09:37:53.367Z,91.76
2023-02-18T09:40:58.504Z,90.26
2023-02-18T09:44:04.235Z,89.65
2023-02-18T09:47:11.090Z,90.19
2023-02-18T09:50:23.686Z,89.92
2023-02-18T09:53:27.097Z,90.14
2023-02-18T09:56:33.330Z,89.95
2023-02-18T09:59:36.579Z,89.01
2023-02-18T10:02:41.568Z,88.64
2023-02-18T10:05:58.394Z,87.05
2023-02-18T10:09:04.942Z,86.58
2023-02-18T10:12:16.208Z,86.25
2023-02-18T10:15:25.884Z,85.98
2023-02-18T10:18:45.340Z,84.56
2023-02-18T10:21:49.098Z,83.57
2023-02-18T10:24:54.960Z,84.61
2023-02-18T10:27:59.365Z,83.12
2023-02-18T10:31:19.524Z,81.50
2023-02-18T10:34:43.726Z,80.24
2023-02-18T10:38:04.831Z,79.64
2023-02-18T10:41:19.862Z,80.37
2023-02-18T10:44:54.770Z,79.06
2023-02-18T10:48:07.151Z,77.48
2023-02-18T10:51:18.025Z,75.70
2023-02-18T10:54:25.309Z,77.62
2023-02-18T10:57:28.628Z,76.71
2023-02-18T11:00:36.232Z,75.02
2023-02-18T11:03:48.167Z,74.95
2023-02-18T11:06:54.185Z,73.96
2023-02-18T11:10:00.434Z,72.93
2023-02-18T11:13:08.133Z,73.23
2023-02-18T11:16:12.585Z,73.55
2023-02-18T11:19:38.468Z,74.50
2023-02-18T11:22:42.429Z,74.23
2023-02-18T11:25:54.761Z,75.94
2023-02-18T11:29:15.494Z,78.89
2023-02-18T11:32:18.845Z,79.76
2023-02-18T11:35:25.108Z,80.78
2023-02-18T11:38:55.860Z,80.22
2023-02-18T11:42:04.500Z,81.15
2023-02-18T11:45:30.791Z,81.80
2023-02-18T11:48:33.698Z,83.02
2023-02-18T11:51:40.527Z,83.93
2023-02-18T11:54:44.410Z,85.25
2023-02-18T11:57:55.900Z,86.07
2023-02-18T12:00:59.795Z,88.05
2023-02-18T12:04:27.852Z,89.00
2023-02-18T12:07:50.782Z,89.79
2023-02-18T12:10:55.939Z,89.67
2023-02-18T12:13:59.423Z,89.62
2023-02-18T12:17:17.900Z,89.94
2023-02-18T12:20:23.780Z,89.87
2023-02-18T12:23:39.205Z,89.32
2023-02-18T12:27:03.509Z,88.97
2023-02-18T12:30:33.412Z,89.14
2023-02-18T12:34:02.195Z,88.42
2023-02-18T12:37:29.914Z,88.88
2023-02-18T12:40:41.253Z,89.62
2023-02-18T12:43:59.159Z,89.56
2023-02-18T12:47:17.254Z,89.17
2023-02-18T12:50:52.369Z,88.30
2023-02-18T12:54:00.797Z,89.27
2023-02-18T12:57:16.988Z,88.67
2023-02-18T13:00:47.758Z,89.57
2023-02-18T13:04:09.204Z,90.40
2023-02-18T13:07:21.023Z,89.38
2023-02-18T13:10:38.285Z,88.72
2023-02-18T13:13:54.540Z,88.65
2023-02-18T13:16:59.717Z,88.84
2023-02-18T13:20:15.197Z,89.32
2023-02-18T13:23:23.907Z,88.69
2023-02-18T13:26:27.805Z,88.67
2023-02-18T13:29:35.714Z,87.90
2023-02-18T13:32:41.760Z,87.87
2023-02-18T13:36:03.451Z,88.12
2023-02-18T13:39:08.897Z,87.88
2023-02-18T13:42:17.994Z,88.63
2023-02-18T13:45:30.721Z,88.92
2023-02-18T13:48:40.787Z,89.14
2023-02-18T13:51:49.193Z,89.21
2023-02-18T13:54:52.270Z,88.94
2023-02-18T13:57:56.285Z,88.85
2023-02-18T14:01:11.444Z,88.86
2023-02-18T14:04:56.355Z,88.30
2023-02-18T14:08:19.282Z,88.74
2023-02-18T14:11:22.138Z,88.47
2023-02-18T14:14:28.035Z,88.21
2023-02-18T14:17:34.743Z,88.60
2023-02-18T14:20:37.898Z,88.92
2023-02-18T14:23:56.939Z,87.72
2023-02-18T14:27:09.933Z,87.98
2023-02-18T14:30:42.247Z,87.25
2023-02-18T14:34:23.196Z,87.17
2023-02-18T14:37:41.777Z,87.45
2023-02-18T14:40:53.910Z,86.25
2023-02-18T14:44:22.555Z,87.17
2023-02-18T14:47:34.871Z,86.12
2023-02-18T14:50:39.618Z,86.86
2023-02-18T14:53:44.918Z,86.57
2023-02-18T14:56:56.251Z,85.69
2023-02-18T15:00:03.792Z,85.47
2023-02-18T15:03:15.077Z,85.92
2023-02-18T15:06:26.070Z,83.26
2023-02-18T15:09:29.047Z,82.56
2023-02-18T15:12:32.020Z,82.73
2023-02-18T15:15:36.292Z,81.92
2023-02-18T15:18:42.615Z,80.91
2023-02-18T15:21:48.011Z,81.57
2023-02-18T15:24:53.875Z,81.06
2023-02-18T15:27:56.845Z,79.02
2023-02-18T15:31:01.966Z,80.24
2023-02-18T15:34:30.182Z,79.14
2023-02-18T15:37:33.207Z,77.68
2023-02-18T15:40:38.088Z,78.29
2023-02-18T15:43:54.454Z,77.87
2023-02-18T15:47:01.777Z,77.02
2023-02-18T15:50:05.040Z,76.81
2023-02-18T15:53:13.226Z,75.79
2023-02-18T15:56:21.796Z,76.63
2023-02-18T15:59:35.383Z,76.09
2023-02-18T16:02:51.595Z,75.37
2023-02-18T16:06:10.018Z,74.62
2023-02-18T16:09:18.567Z,75.28
2023-02-18T16:12:28.803Z,75.06
2023-02-18T16:15:42.610Z,72.35
2023-02-18T16:18:45.866Z,73.21
2023-02-18T16:21:48.491Z,73.25
2023-02-18T16:24:56.688Z,71.36
2023-02-18T16:27:59.444Z,70.91
2023-02-18T16:31:02.142Z,71.75
2023-02-18T16:34:05.424Z,71.40
2023-02-18T16:37:28.494Z,72.48
2023-02-18T16:40:35.950Z,70.99
2023-02-18T16:43:39.904Z,70.15
2023-02-18T16:46:43.231Z,70.47
2023-02-18T16:49:48.367Z,70.34
2023-02-18T16:52:51.798Z,70.93
2023-02-18T16:55:54.963Z,69.80
2023-02-18T16:58:58.644Z,70.24
2023-02-18T17:02:01.834Z,69.89
2023-02-18T17:05:09.831Z,69.06
2023-02-18T17:08:23.577Z,69.71
2023-02-18T17:11:31.848Z,70.57
2023-02-18T17:14:34.935Z,70.14
2023-02-18T17:17:38.252Z,70.97
2023-02-18T17:20:41.653Z,69.97
2023-02-18T17:23:46.206Z,70.39
2023-02-18T17:26:49.773Z,71.17
2023-02-18T17:29:53.325Z,70.36
2023-02-18T17:33:03.289Z,71.00
2023-02-18T17:36:07.019Z,69.68
2023-02-18T17:39:14.672Z,69.26
2023-02-18T17:42:17.671Z,69.31
2023-02-18T17:45:24.297Z,68.28
2023-02-18T17:48:28.725Z,69.95
2023-02-18T17:51:32.512Z,69.47
2023-02-18T17:54:35.421Z,70.17
2023-02-18T17:57:38.702Z,70.15
2023-02-18T18:00:47.360Z,71.65
2023-02-18T18:03:50.322Z,71.17
2023-02-18T18:06:53.267Z,72.60
2023-02-18T18:09:56.146Z,73.85
2023-02-18T18:13:00.647Z,74.40
2023-02-18T18:16:03.612Z,75.66
2023-02-18T18:19:06.538Z,77.96
2023-02-18T18:22:10.497Z,79.43
2023-02-18T18:25:29.356Z,80.45
2023-02-18T18:28:33.375Z,81.75
2023-02-18T18:31:38.064Z,83.07
2023-02-18T18:34:40.837Z,81.71
2023-02-18T18:37:43.862Z,81.99
2023-02-18T18:40:48.197Z,81.68
2023-02-18T18:43:51.396Z,80.72
2023-02-18T18:46:54.218Z,81.06
2023-02-18T18:49:58.598Z,81.45
2023-02-18T18:53:01.664Z,81.39
2023-02-18T18:56:08.855Z,80.56
2023-02-18T18:59:18.504Z,79.65
2023-02-18T19:02:22.293Z,79.53
2023-02-18T19:05:31.934Z,79.77
2023-02-18T19:08:37.570Z,78.56
2023-02-18T19:11:42.495Z,77.06
2023-02-18T19:14:45.834Z,77.67
2023-02-18T19:17:54.035Z,76.67
2023-02-18T19:20:59.795Z,75.91
2023-02-18T19:24:04.474Z,76.74
2023-02-18T19:27:10.743Z,75.49
2023-02-18T19:30:20.301Z,75.01
2023-02-18T19:33:25.202Z,74.94
2023-02-18T19:36:31.042Z,73.71
2023-02-18T19:39:35.722Z,72.48
2023-02-18T19:42:38.798Z,71.92
2023-02-18T19:45:43.873Z,73.67
2023-02-18T19:48:52.716Z,72.80
2023-02-18T19:51:56.823Z,72.83
2023-02-18T19:55:00.558Z,71.57
2023-02-18T19:58:03.486Z,71.00
2023-02-18T20:01:15.040Z,71.16
2023-02-18T20:04:18.020Z,72.24
2023-02-18T20:07:22.229Z,71.89
2023-02-18T20:10:26.019Z,71.35
2023-02-18T20:13:29.117Z,72.30
2023-02-18T20:16:31.942Z,71.63
2023-02-18T20:19:35.367Z,71.71
2023-02-18T20:22:38.493Z,70.07
2023-02-18T20:25:44.307Z,71.27
2023-02-18T20:28:48.029Z,71.62
2023-02-18T20:31:51.363Z,71.23
2023-02-18T20:34:54.366Z,71.47
2023-02-18T20:37:57.763Z,71.14
2023-02-18T20:41:15.064Z,71.13
2023-02-18T20:44:19.860Z,70.66
2023-02-18T20:47:23.001Z,71.66
2023-02-18T20:50:25.875Z,71.31
2023-02-18T20:53:31.762Z,71.21
2023-02-18T20:56:34.997Z,71.21
2023-02-18T20:59:40.315Z,69.88
2023-02-18T21:02:43.195Z,69.10
2023-02-18T21:05:46.032Z,69.80
2023-02-18T21:08:50.526Z,70.09
2023-02-18T21:11:53.701Z,69.47
2023-02-18T21:14:56.502Z,70.33
2023-02-18T21:18:00.454Z,68.32
2023-02-18T21:21:05.792Z,69.15
2023-02-18T21:24:09.653Z,69.23
2023-02-18T21:27:12.605Z,69.56
2023-02-18T21:30:15.804Z,69.02
2023-02-18T21:33:18.704Z,69.24
2023-02-18T21:36:22.406Z,68.51
2023-02-18T21:39:25.169Z,68.39
2023-02-18T21:42:28.485Z,69.08
2023-02-18T21:45:31.602Z,69.29
2023-02-18T21:48:52.993Z,69.65
2023-02-18T21:52:08.608Z,68.02
2023-02-18T21:55:11.481Z,67.24
2023-02-18T21:58:14.448Z,67.70
2023-02-18T22:01:17.811Z,68.35
2023-02-18T22:04:20.934Z,67.04
2023-02-18T22:07:26.647Z,67.65
2023-02-18T22:10:29.483Z,67.14
2023-02-18T22:13:32.587Z,67.73
2023-02-18T22:16:35.516Z,66.64
2023-02-18T22:19:38.578Z,67.21
2023-02-18T22:22:41.303Z,67.94
2023-02-18T22:25:44.283Z,67.07
2023-02-18T22:28:54.745Z,66.96
2023-02-18T22:31:57.454Z,67.09
2023-02-18T22:35:00.202Z,67.10
2023-02-18T22:38:03.180Z,67.78
2023-02-18T22:41:11.380Z,68.31
2023-02-18T22:44:15.494Z,68.26
2023-02-18T22:47:18.084Z,68.01
2023-02-18T22:50:21.013Z,68.17
2023-02-18T22:53:24.171Z,66.85
2023-02-18T22:56:28.795Z,67.70
2023-02-18T22:59:31.937Z,67.60
2023-02-18T23:02:34.714Z,67.66
2023-02-18T23:05:37.425Z,67.59
2023-02-18T23:08:40.235Z,67.64
2023-02-18T23:11:43.453Z,68.11
2023-02-18T23:14:46.434Z,68.26
2023-02-18T23:17:49.496Z,68.07
2023-02-18T23:21:11.514Z,67.62
2023-02-18T23:24:14.456Z,68.05
2023-02-18T23:27:17.546Z,68.95
2023-02-18T23:30:20.219Z,69.01
2023-02-18T23:33:22.898Z,68.21
2023-02-18T23:36:28.437Z,68.72
2023-02-18T23:39:31.222Z,68.98
2023-02-18T23:42:33.986Z,69.70
2023-02-18T23:45:36.764Z,69.63
2023-02-18T23:48:40.114Z,69.99
2023-02-18T23:51:42.692Z,69.70
2023-02-18T23:54:45.474Z,70.15
2023-02-18T23:57:48.871Z,70.03
